sensor_id;sensor_type;location;lat;lon;timestamp;P1;durP1;ratioP1;P2;durP2;ratioP2
24325;SDS011;12448;45.532;5.290;2022-12-10T00:01:10;505.53;;;27.60;;
24325;SDS011;12448;45.532;5.290;2022-12-10T00:03:40;657.37;;;31.13;;
24325;SDS011;12448;45.532;5.290;2022-12-10T00:06:09;653.40;;;29.40;;
24325;SDS011;12448;45.532;5.290;2022-12-10T00:08:40;648.33;;;29.93;;
24325;SDS011;12448;45.532;5.290;2022-12-10T00:11:07;387.73;;;28.77;;
24325;SDS011;12448;45.532;5.290;2022-12-10T00:13:34;449.13;;;19.00;;
24325;SDS011;12448;45.532;5.290;2022-12-10T00:16:01;621.10;;;29.80;;
24325;SDS011;12448;45.532;5.290;2022-12-10T00:18:28;982.30;;;35.73;;
24325;SDS011;12448;45.532;5.290;2022-12-10T00:20:54;814.23;;;33.37;;
24325;SDS011;12448;45.532;5.290;2022-12-10T00:23:20;1157.13;;;39.07;;
24325;SDS011;12448;45.532;5.290;2022-12-10T00:25:46;925.70;;;34.50;;
24325;SDS011;12448;45.532;5.290;2022-12-10T00:28:12;701.93;;;30.20;;
24325;SDS011;12448;45.532;5.290;2022-12-10T00:30:37;512.93;;;27.53;;
24325;SDS011;12448;45.532;5.290;2022-12-10T00:33:03;487.63;;;28.17;;
24325;SDS011;12448;45.532;5.290;2022-12-10T00:35:29;641.97;;;26.67;;
24325;SDS011;12448;45.532;5.290;2022-12-10T00:37:54;760.33;;;29.33;;
24325;SDS011;12448;45.532;5.290;2022-12-10T00:40:20;712.67;;;31.03;;
24325;SDS011;12448;45.532;5.290;2022-12-10T00:42:46;618.20;;;27.63;;
24325;SDS011;12448;45.532;5.290;2022-12-10T00:45:12;552.93;;;24.73;;
24325;SDS011;12448;45.532;5.290;2022-12-10T00:47:37;1036.93;;;32.67;;
24325;SDS011;12448;45.532;5.290;2022-12-10T00:50:03;804.53;;;26.75;;
24325;SDS011;12448;45.532;5.290;2022-12-10T00:52:29;674.40;;;27.00;;
24325;SDS011;12448;45.532;5.290;2022-12-10T00:54:54;917.83;;;29.60;;
24325;SDS011;12448;45.532;5.290;2022-12-10T00:57:20;955.37;;;30.30;;
24325;SDS011;12448;45.532;5.290;2022-12-10T00:59:45;942.50;;;29.13;;
24325;SDS011;12448;45.532;5.290;2022-12-10T01:02:11;834.53;;;26.57;;
24325;SDS011;12448;45.532;5.290;2022-12-10T01:04:37;813.27;;;26.03;;
24325;SDS011;12448;45.532;5.290;2022-12-10T01:07:02;783.63;;;22.93;;
24325;SDS011;12448;45.532;5.290;2022-12-10T01:09:29;614.63;;;21.93;;
24325;SDS011;12448;45.532;5.290;2022-12-10T01:11:56;246.37;;;18.03;;
24325;SDS011;12448;45.532;5.290;2022-12-10T01:14:29;472.77;;;18.37;;
24325;SDS011;12448;45.532;5.290;2022-12-10T01:16:59;447.17;;;18.85;;
24325;SDS011;12448;45.532;5.290;2022-12-10T01:19:27;390.93;;;17.43;;
24325;SDS011;12448;45.532;5.290;2022-12-10T01:21:54;229.83;;;15.43;;
24325;SDS011;12448;45.532;5.290;2022-12-10T01:24:21;258.20;;;16.70;;
24325;SDS011;12448;45.532;5.290;2022-12-10T01:26:47;255.03;;;18.43;;
24325;SDS011;12448;45.532;5.290;2022-12-10T01:29:13;461.17;;;19.43;;
24325;SDS011;12448;45.532;5.290;2022-12-10T01:31:39;322.43;;;20.30;;
24325;SDS011;12448;45.532;5.290;2022-12-10T01:34:06;866.70;;;28.43;;
24325;SDS011;12448;45.532;5.290;2022-12-10T01:36:35;599.33;;;22.30;;
24325;SDS011;12448;45.532;5.290;2022-12-10T01:39:09;863.73;;;26.20;;
24325;SDS011;12448;45.532;5.290;2022-12-10T01:41:40;882.03;;;29.60;;
24325;SDS011;12448;45.532;5.290;2022-12-10T01:46:44;664.67;;;23.47;;
24325;SDS011;12448;45.532;5.290;2022-12-10T01:49:12;854.40;;;28.50;;
24325;SDS011;12448;45.532;5.290;2022-12-10T01:51:42;917.73;;;28.50;;
24325;SDS011;12448;45.532;5.290;2022-12-10T01:54:10;1111.53;;;33.03;;
24325;SDS011;12448;45.532;5.290;2022-12-10T01:56:40;906.43;;;29.83;;
24325;SDS011;12448;45.532;5.290;2022-12-10T01:59:08;928.47;;;30.03;;
24325;SDS011;12448;45.532;5.290;2022-12-10T02:01:52;723.53;;;26.03;;
24325;SDS011;12448;45.532;5.290;2022-12-10T02:04:29;983.40;;;32.23;;
24325;SDS011;12448;45.532;5.290;2022-12-10T02:07:06;940.03;;;29.30;;
24325;SDS011;12448;45.532;5.290;2022-12-10T02:09:42;652.70;;;24.23;;
24325;SDS011;12448;45.532;5.290;2022-12-10T02:17:37;1129.60;;;34.53;;
24325;SDS011;12448;45.532;5.290;2022-12-10T02:20:08;737.77;;;24.20;;
24325;SDS011;12448;45.532;5.290;2022-12-10T02:22:40;1195.50;;;36.20;;
24325;SDS011;12448;45.532;5.290;2022-12-10T02:25:13;898.50;;;27.40;;
24325;SDS011;12448;45.532;5.290;2022-12-10T02:27:48;950.70;;;30.60;;
24325;SDS011;12448;45.532;5.290;2022-12-10T02:30:27;673.40;;;23.93;;
24325;SDS011;12448;45.532;5.290;2022-12-10T02:32:56;530.20;;;21.77;;
24325;SDS011;12448;45.532;5.290;2022-12-10T02:35:24;822.83;;;27.80;;
24325;SDS011;12448;45.532;5.290;2022-12-10T02:38:01;910.03;;;27.83;;
24325;SDS011;12448;45.532;5.290;2022-12-10T02:40:52;415.70;;;20.00;;
24325;SDS011;12448;45.532;5.290;2022-12-10T02:43:24;462.20;;;22.33;;
24325;SDS011;12448;45.532;5.290;2022-12-10T02:45:52;735.00;;;26.60;;
24325;SDS011;12448;45.532;5.290;2022-12-10T02:48:19;726.97;;;25.77;;
24325;SDS011;12448;45.532;5.290;2022-12-10T02:50:45;440.33;;;21.50;;
24325;SDS011;12448;45.532;5.290;2022-12-10T02:53:10;957.00;;;30.03;;
24325;SDS011;12448;45.532;5.290;2022-12-10T02:55:40;1058.97;;;33.40;;
24325;SDS011;12448;45.532;5.290;2022-12-10T02:58:46;1412.22;;;40.08;;
24325;SDS011;12448;45.532;5.290;2022-12-10T03:04:01;759.23;;;25.63;;
24325;SDS011;12448;45.532;5.290;2022-12-10T03:06:54;613.30;;;23.37;;
24325;SDS011;12448;45.532;5.290;2022-12-10T03:09:37;581.30;;;22.37;;
24325;SDS011;12448;45.532;5.290;2022-12-10T03:12:15;654.40;;;25.03;;
24325;SDS011;12448;45.532;5.290;2022-12-10T03:14:58;885.13;;;28.60;;
24325;SDS011;12448;45.532;5.290;2022-12-10T03:17:25;1123.23;;;33.53;;
24325;SDS011;12448;45.532;5.290;2022-12-10T03:19:53;887.83;;;30.53;;
24325;SDS011;12448;45.532;5.290;2022-12-10T03:22:22;887.97;;;29.40;;
24325;SDS011;12448;45.532;5.290;2022-12-10T03:24:47;591.67;;;24.13;;
24325;SDS011;12448;45.532;5.290;2022-12-10T03:27:13;1035.20;;;32.97;;
24325;SDS011;12448;45.532;5.290;2022-12-10T03:29:44;215.57;;;22.53;;
24325;SDS011;12448;45.532;5.290;2022-12-10T03:32:13;94.13;;;19.23;;
24325;SDS011;12448;45.532;5.290;2022-12-10T03:34:41;144.60;;;22.20;;
24325;SDS011;12448;45.532;5.290;2022-12-10T03:37:08;147.87;;;23.03;;
24325;SDS011;12448;45.532;5.290;2022-12-10T03:39:35;307.93;;;24.27;;
24325;SDS011;12448;45.532;5.290;2022-12-10T03:42:01;352.63;;;26.83;;
24325;SDS011;12448;45.532;5.290;2022-12-10T03:44:32;208.37;;;24.53;;
24325;SDS011;12448;45.532;5.290;2022-12-10T03:47:00;485.10;;;29.80;;
24325;SDS011;12448;45.532;5.290;2022-12-10T03:49:26;218.10;;;25.93;;
24325;SDS011;12448;45.532;5.290;2022-12-10T03:51:52;366.13;;;27.10;;
24325;SDS011;12448;45.532;5.290;2022-12-10T03:54:18;776.53;;;33.77;;
24325;SDS011;12448;45.532;5.290;2022-12-10T03:56:44;399.90;;;23.47;;
24325;SDS011;12448;45.532;5.290;2022-12-10T03:59:10;422.80;;;28.53;;
24325;SDS011;12448;45.532;5.290;2022-12-10T04:01:35;904.90;;;36.57;;
24325;SDS011;12448;45.532;5.290;2022-12-10T04:04:02;519.43;;;26.03;;
24325;SDS011;12448;45.532;5.290;2022-12-10T04:06:28;366.87;;;24.07;;
24325;SDS011;12448;45.532;5.290;2022-12-10T04:08:54;455.73;;;26.67;;
24325;SDS011;12448;45.532;5.290;2022-12-10T04:11:20;264.13;;;23.73;;
24325;SDS011;12448;45.532;5.290;2022-12-10T04:13:46;227.33;;;23.13;;
24325;SDS011;12448;45.532;5.290;2022-12-10T04:16:30;349.60;;;22.53;;
24325;SDS011;12448;45.532;5.290;2022-12-10T04:19:01;411.27;;;23.60;;
24325;SDS011;12448;45.532;5.290;2022-12-10T04:21:29;819.20;;;30.30;;
24325;SDS011;12448;45.532;5.290;2022-12-10T04:24:15;858.23;;;29.83;;
24325;SDS011;12448;45.532;5.290;2022-12-10T04:27:02;558.10;;;24.57;;
24325;SDS011;12448;45.532;5.290;2022-12-10T04:29:31;467.83;;;22.43;;
24325;SDS011;12448;45.532;5.290;2022-12-10T04:31:57;388.67;;;22.73;;
24325;SDS011;12448;45.532;5.290;2022-12-10T04:34:22;264.63;;;24.33;;
24325;SDS011;12448;45.532;5.290;2022-12-10T04:36:49;641.13;;;28.37;;
24325;SDS011;12448;45.532;5.290;2022-12-10T04:39:15;912.27;;;34.33;;
24325;SDS011;12448;45.532;5.290;2022-12-10T04:41:42;404.47;;;26.37;;
24325;SDS011;12448;45.532;5.290;2022-12-10T04:44:10;313.70;;;26.97;;
24325;SDS011;12448;45.532;5.290;2022-12-10T04:46:36;391.40;;;27.07;;
24325;SDS011;12448;45.532;5.290;2022-12-10T04:49:02;149.27;;;23.27;;
24325;SDS011;12448;45.532;5.290;2022-12-10T04:51:29;106.20;;;25.43;;
24325;SDS011;12448;45.532;5.290;2022-12-10T04:53:55;52.33;;;26.47;;
24325;SDS011;12448;45.532;5.290;2022-12-10T04:56:20;204.43;;;28.27;;
24325;SDS011;12448;45.532;5.290;2022-12-10T04:58:46;475.03;;;30.63;;
24325;SDS011;12448;45.532;5.290;2022-12-10T05:01:12;248.67;;;23.53;;
24325;SDS011;12448;45.532;5.290;2022-12-10T05:03:38;474.60;;;33.27;;
24325;SDS011;12448;45.532;5.290;2022-12-10T05:06:04;351.57;;;30.17;;
24325;SDS011;12448;45.532;5.290;2022-12-10T05:08:31;361.47;;;27.53;;
24325;SDS011;12448;45.532;5.290;2022-12-10T05:11:04;55.73;;;25.63;;
24325;SDS011;12448;45.532;5.290;2022-12-10T05:13:37;55.27;;;21.43;;
24325;SDS011;12448;45.532;5.290;2022-12-10T05:16:04;63.90;;;26.67;;
24325;SDS011;12448;45.532;5.290;2022-12-10T05:18:31;56.30;;;26.80;;
24325;SDS011;12448;45.532;5.290;2022-12-10T05:21:00;80.40;;;27.13;;
24325;SDS011;12448;45.532;5.290;2022-12-10T05:23:27;45.17;;;23.80;;
24325;SDS011;12448;45.532;5.290;2022-12-10T05:28:39;48.13;;;25.40;;
24325;SDS011;12448;45.532;5.290;2022-12-10T05:31:11;56.27;;;28.57;;
24325;SDS011;12448;45.532;5.290;2022-12-10T05:33:48;57.50;;;29.90;;
24325;SDS011;12448;45.532;5.290;2022-12-10T05:36:14;64.30;;;33.43;;
24325;SDS011;12448;45.532;5.290;2022-12-10T05:38:42;51.80;;;27.73;;
24325;SDS011;12448;45.532;5.290;2022-12-10T05:41:14;61.83;;;29.53;;
24325;SDS011;12448;45.532;5.290;2022-12-10T05:43:42;67.93;;;35.33;;
24325;SDS011;12448;45.532;5.290;2022-12-10T05:46:10;64.87;;;33.63;;
24325;SDS011;12448;45.532;5.290;2022-12-10T05:48:38;51.63;;;27.53;;
24325;SDS011;12448;45.532;5.290;2022-12-10T05:51:04;69.33;;;36.47;;
24325;SDS011;12448;45.532;5.290;2022-12-10T05:53:37;55.23;;;29.43;;
24325;SDS011;12448;45.532;5.290;2022-12-10T05:56:05;57.90;;;29.40;;
24325;SDS011;12448;45.532;5.290;2022-12-10T05:58:32;58.23;;;30.00;;
24325;SDS011;12448;45.532;5.290;2022-12-10T06:00:59;60.93;;;30.90;;
24325;SDS011;12448;45.532;5.290;2022-12-10T06:03:30;65.30;;;29.27;;
24325;SDS011;12448;45.532;5.290;2022-12-10T06:05:55;64.80;;;33.33;;
24325;SDS011;12448;45.532;5.290;2022-12-10T06:08:21;54.47;;;28.60;;
24325;SDS011;12448;45.532;5.290;2022-12-10T06:10:47;54.87;;;29.70;;
24325;SDS011;12448;45.532;5.290;2022-12-10T06:13:13;49.03;;;26.97;;
24325;SDS011;12448;45.532;5.290;2022-12-10T06:15:39;54.07;;;28.37;;
24325;SDS011;12448;45.532;5.290;2022-12-10T06:18:11;56.33;;;27.80;;
24325;SDS011;12448;45.532;5.290;2022-12-10T06:20:38;62.50;;;31.03;;
24325;SDS011;12448;45.532;5.290;2022-12-10T06:23:04;68.13;;;26.93;;
24325;SDS011;12448;45.532;5.290;2022-12-10T06:25:30;57.97;;;28.37;;
24325;SDS011;12448;45.532;5.290;2022-12-10T06:27:55;60.50;;;26.40;;
24325;SDS011;12448;45.532;5.290;2022-12-10T06:30:21;86.77;;;28.90;;
24325;SDS011;12448;45.532;5.290;2022-12-10T06:32:47;58.00;;;29.20;;
24325;SDS011;12448;45.532;5.290;2022-12-10T06:35:12;56.93;;;28.30;;
24325;SDS011;12448;45.532;5.290;2022-12-10T06:37:38;54.53;;;28.07;;
24325;SDS011;12448;45.532;5.290;2022-12-10T06:40:04;67.80;;;35.57;;
24325;SDS011;12448;45.532;5.290;2022-12-10T06:42:30;55.20;;;29.60;;
24325;SDS011;12448;45.532;5.290;2022-12-10T06:44:56;66.63;;;34.63;;
24325;SDS011;12448;45.532;5.290;2022-12-10T06:47:22;55.20;;;29.33;;
24325;SDS011;12448;45.532;5.290;2022-12-10T06:49:47;53.20;;;26.57;;
24325;SDS011;12448;45.532;5.290;2022-12-10T06:52:13;42.83;;;23.53;;
24325;SDS011;12448;45.532;5.290;2022-12-10T06:54:39;58.63;;;29.47;;
24325;SDS011;12448;45.532;5.290;2022-12-10T06:57:05;58.40;;;29.30;;
24325;SDS011;12448;45.532;5.290;2022-12-10T06:59:31;70.17;;;34.40;;
24325;SDS011;12448;45.532;5.290;2022-12-10T07:01:56;120.57;;;55.53;;
24325;SDS011;12448;45.532;5.290;2022-12-10T07:04:22;74.50;;;36.37;;
24325;SDS011;12448;45.532;5.290;2022-12-10T07:06:48;61.33;;;31.63;;
24325;SDS011;12448;45.532;5.290;2022-12-10T07:09:14;147.43;;;69.57;;
24325;SDS011;12448;45.532;5.290;2022-12-10T07:11:41;98.63;;;55.40;;
24325;SDS011;12448;45.532;5.290;2022-12-10T07:14:07;75.37;;;38.67;;
24325;SDS011;12448;45.532;5.290;2022-12-10T07:16:33;108.87;;;40.20;;
24325;SDS011;12448;45.532;5.290;2022-12-10T07:18:59;76.43;;;38.30;;
24325;SDS011;12448;45.532;5.290;2022-12-10T07:21:27;69.90;;;35.37;;
24325;SDS011;12448;45.532;5.290;2022-12-10T07:23:53;58.20;;;30.00;;
24325;SDS011;12448;45.532;5.290;2022-12-10T07:26:30;118.13;;;35.63;;
24325;SDS011;12448;45.532;5.290;2022-12-10T07:28:58;81.87;;;42.40;;
24325;SDS011;12448;45.532;5.290;2022-12-10T07:31:25;94.03;;;30.23;;
24325;SDS011;12448;45.532;5.290;2022-12-10T07:33:57;109.93;;;35.17;;
24325;SDS011;12448;45.532;5.290;2022-12-10T07:36:23;128.33;;;33.97;;
24325;SDS011;12448;45.532;5.290;2022-12-10T07:38:50;191.00;;;31.63;;
24325;SDS011;12448;45.532;5.290;2022-12-10T07:41:16;98.87;;;32.43;;
24325;SDS011;12448;45.532;5.290;2022-12-10T07:43:43;72.70;;;34.17;;
24325;SDS011;12448;45.532;5.290;2022-12-10T07:48:44;91.30;;;35.97;;
24325;SDS011;12448;45.532;5.290;2022-12-10T07:51:14;83.60;;;36.17;;
24325;SDS011;12448;45.532;5.290;2022-12-10T07:53:42;88.97;;;39.70;;
24325;SDS011;12448;45.532;5.290;2022-12-10T07:56:09;88.10;;;33.37;;
24325;SDS011;12448;45.532;5.290;2022-12-10T07:58:35;88.07;;;40.67;;
24325;SDS011;12448;45.532;5.290;2022-12-10T08:01:08;84.07;;;37.50;;
24325;SDS011;12448;45.532;5.290;2022-12-10T08:03:35;94.43;;;39.27;;
24325;SDS011;12448;45.532;5.290;2022-12-10T08:06:05;94.03;;;40.53;;
24325;SDS011;12448;45.532;5.290;2022-12-10T08:08:34;90.83;;;38.60;;
24325;SDS011;12448;45.532;5.290;2022-12-10T08:11:01;76.60;;;33.87;;
24325;SDS011;12448;45.532;5.290;2022-12-10T08:13:28;104.73;;;45.20;;
24325;SDS011;12448;45.532;5.290;2022-12-10T08:16:02;103.03;;;46.50;;
24325;SDS011;12448;45.532;5.290;2022-12-10T08:18:31;64.13;;;30.37;;
24325;SDS011;12448;45.532;5.290;2022-12-10T08:20:58;73.43;;;34.33;;
24325;SDS011;12448;45.532;5.290;2022-12-10T08:23:28;61.27;;;30.60;;
24325;SDS011;12448;45.532;5.290;2022-12-10T08:25:54;95.07;;;43.80;;
24325;SDS011;12448;45.532;5.290;2022-12-10T08:28:19;62.33;;;28.60;;
24325;SDS011;12448;45.532;5.290;2022-12-10T08:30:46;63.97;;;28.17;;
24325;SDS011;12448;45.532;5.290;2022-12-10T08:33:15;99.00;;;49.47;;
24325;SDS011;12448;45.532;5.290;2022-12-10T08:35:40;68.10;;;31.73;;
24325;SDS011;12448;45.532;5.290;2022-12-10T08:38:07;111.77;;;50.43;;
24325;SDS011;12448;45.532;5.290;2022-12-10T08:40:32;68.43;;;27.90;;
24325;SDS011;12448;45.532;5.290;2022-12-10T08:42:58;257.47;;;116.20;;
24325;SDS011;12448;45.532;5.290;2022-12-10T08:45:26;93.67;;;44.33;;
24325;SDS011;12448;45.532;5.290;2022-12-10T08:47:52;200.87;;;92.33;;
24325;SDS011;12448;45.532;5.290;2022-12-10T08:50:17;82.63;;;37.87;;
24325;SDS011;12448;45.532;5.290;2022-12-10T08:52:43;93.20;;;42.47;;
24325;SDS011;12448;45.532;5.290;2022-12-10T08:55:09;108.67;;;48.17;;
24325;SDS011;12448;45.532;5.290;2022-12-10T08:57:35;167.30;;;80.00;;
24325;SDS011;12448;45.532;5.290;2022-12-10T09:00:01;89.87;;;42.53;;
24325;SDS011;12448;45.532;5.290;2022-12-10T09:02:31;109.27;;;52.87;;
24325;SDS011;12448;45.532;5.290;2022-12-10T09:04:57;85.30;;;39.20;;
24325;SDS011;12448;45.532;5.290;2022-12-10T09:07:23;118.27;;;56.83;;
24325;SDS011;12448;45.532;5.290;2022-12-10T09:09:48;141.13;;;71.83;;
24325;SDS011;12448;45.532;5.290;2022-12-10T09:12:14;88.13;;;39.07;;
24325;SDS011;12448;45.532;5.290;2022-12-10T09:14:49;75.93;;;33.77;;
24325;SDS011;12448;45.532;5.290;2022-12-10T09:17:15;91.40;;;42.07;;
24325;SDS011;12448;45.532;5.290;2022-12-10T09:19:41;80.03;;;36.10;;
24325;SDS011;12448;45.532;5.290;2022-12-10T09:22:09;79.43;;;35.23;;
24325;SDS011;12448;45.532;5.290;2022-12-10T09:24:35;114.43;;;55.70;;
24325;SDS011;12448;45.532;5.290;2022-12-10T09:27:00;135.23;;;64.90;;
24325;SDS011;12448;45.532;5.290;2022-12-10T09:29:27;84.23;;;38.23;;
24325;SDS011;12448;45.532;5.290;2022-12-10T09:31:53;89.37;;;42.67;;
24325;SDS011;12448;45.532;5.290;2022-12-10T09:34:19;93.60;;;42.83;;
24325;SDS011;12448;45.532;5.290;2022-12-10T09:36:46;98.83;;;47.10;;
24325;SDS011;12448;45.532;5.290;2022-12-10T09:39:11;74.87;;;33.70;;
24325;SDS011;12448;45.532;5.290;2022-12-10T09:47:00;87.13;;;37.73;;
24325;SDS011;12448;45.532;5.290;2022-12-10T09:49:46;92.70;;;42.20;;
24325;SDS011;12448;45.532;5.290;2022-12-10T09:52:36;88.50;;;41.60;;
24325;SDS011;12448;45.532;5.290;2022-12-10T09:57:37;71.50;;;32.17;;
24325;SDS011;12448;45.532;5.290;2022-12-10T10:00:52;95.67;;;42.97;;
24325;SDS011;12448;45.532;5.290;2022-12-10T10:02:55;84.97;;;38.97;;
24325;SDS011;12448;45.532;5.290;2022-12-10T10:05:28;79.97;;;37.63;;
24325;SDS011;12448;45.532;5.290;2022-12-10T10:08:06;80.70;;;35.80;;
24325;SDS011;12448;45.532;5.290;2022-12-10T10:11:05;82.80;;;37.33;;
24325;SDS011;12448;45.532;5.290;2022-12-10T10:13:36;76.53;;;34.90;;
24325;SDS011;12448;45.532;5.290;2022-12-10T10:16:19;72.10;;;30.97;;
24325;SDS011;12448;45.532;5.290;2022-12-10T10:18:59;91.93;;;44.23;;
24325;SDS011;12448;45.532;5.290;2022-12-10T10:24:17;77.17;;;33.47;;
24325;SDS011;12448;45.532;5.290;2022-12-10T10:26:45;70.93;;;32.97;;
24325;SDS011;12448;45.532;5.290;2022-12-10T10:29:11;73.50;;;31.50;;
24325;SDS011;12448;45.532;5.290;2022-12-10T10:31:41;61.73;;;29.97;;
24325;SDS011;12448;45.532;5.290;2022-12-10T10:34:13;77.10;;;34.77;;
24325;SDS011;12448;45.532;5.290;2022-12-10T10:36:46;69.90;;;32.00;;
24325;SDS011;12448;45.532;5.290;2022-12-10T10:41:41;82.00;;;35.93;;
24325;SDS011;12448;45.532;5.290;2022-12-10T10:44:16;68.83;;;30.13;;
24325;SDS011;12448;45.532;5.290;2022-12-10T10:46:45;71.27;;;32.67;;
24325;SDS011;12448;45.532;5.290;2022-12-10T10:49:23;68.53;;;31.43;;
24325;SDS011;12448;45.532;5.290;2022-12-10T10:51:52;62.07;;;29.10;;
24325;SDS011;12448;45.532;5.290;2022-12-10T10:54:33;66.67;;;30.33;;
24325;SDS011;12448;45.532;5.290;2022-12-10T10:57:06;61.53;;;29.47;;
24325;SDS011;12448;45.532;5.290;2022-12-10T10:59:44;63.97;;;29.70;;
24325;SDS011;12448;45.532;5.290;2022-12-10T11:02:18;59.17;;;27.13;;
24325;SDS011;12448;45.532;5.290;2022-12-10T11:04:51;58.83;;;28.10;;
24325;SDS011;12448;45.532;5.290;2022-12-10T11:07:40;62.37;;;27.63;;
24325;SDS011;12448;45.532;5.290;2022-12-10T11:10:28;61.10;;;29.53;;
24325;SDS011;12448;45.532;5.290;2022-12-10T11:13:04;56.37;;;26.43;;
24325;SDS011;12448;45.532;5.290;2022-12-10T11:15:36;55.40;;;25.87;;
24325;SDS011;12448;45.532;5.290;2022-12-10T11:21:15;45.83;;;20.50;;
24325;SDS011;12448;45.532;5.290;2022-12-10T11:23:45;46.60;;;22.37;;
24325;SDS011;12448;45.532;5.290;2022-12-10T11:26:28;53.30;;;25.23;;
24325;SDS011;12448;45.532;5.290;2022-12-10T11:34:57;48.93;;;23.30;;
24325;SDS011;12448;45.532;5.290;2022-12-10T11:37:48;47.87;;;21.30;;
24325;SDS011;12448;45.532;5.290;2022-12-10T11:47:01;36.80;;;19.02;;
24325;SDS011;12448;45.532;5.290;2022-12-10T11:50:01;40.33;;;18.40;;
24325;SDS011;12448;45.532;5.290;2022-12-10T11:53:22;39.67;;;18.80;;
24325;SDS011;12448;45.532;5.290;2022-12-10T12:13:57;34.53;;;16.30;;
24325;SDS011;12448;45.532;5.290;2022-12-10T12:17:13;37.00;;;16.97;;
24325;SDS011;12448;45.532;5.290;2022-12-10T12:23:50;26.90;;;14.77;;
24325;SDS011;12448;45.532;5.290;2022-12-10T12:26:30;28.67;;;14.40;;
24325;SDS011;12448;45.532;5.290;2022-12-10T12:29:23;25.90;;;13.93;;
24325;SDS011;12448;45.532;5.290;2022-12-10T12:31:54;28.83;;;14.80;;
24325;SDS011;12448;45.532;5.290;2022-12-10T12:38:03;22.90;;;13.17;;
24325;SDS011;12448;45.532;5.290;2022-12-10T12:40:45;24.03;;;13.80;;
24325;SDS011;12448;45.532;5.290;2022-12-10T12:43:39;24.57;;;12.93;;
24325;SDS011;12448;45.532;5.290;2022-12-10T12:46:33;37.17;;;17.10;;
24325;SDS011;12448;45.532;5.290;2022-12-10T12:51:40;37.40;;;17.50;;
24325;SDS011;12448;45.532;5.290;2022-12-10T12:54:15;38.37;;;20.80;;
24325;SDS011;12448;45.532;5.290;2022-12-10T12:59:54;32.80;;;15.00;;
24325;SDS011;12448;45.532;5.290;2022-12-10T13:02:42;54.10;;;26.90;;
24325;SDS011;12448;45.532;5.290;2022-12-10T13:05:29;111.03;;;47.83;;
24325;SDS011;12448;45.532;5.290;2022-12-10T13:10:58;76.50;;;34.30;;
24325;SDS011;12448;45.532;5.290;2022-12-10T13:13:40;48.13;;;23.97;;
24325;SDS011;12448;45.532;5.290;2022-12-10T13:22:03;79.77;;;36.60;;
24325;SDS011;12448;45.532;5.290;2022-12-10T13:27:30;52.53;;;26.33;;
24325;SDS011;12448;45.532;5.290;2022-12-10T13:36:26;62.75;;;29.58;;
24325;SDS011;12448;45.532;5.290;2022-12-10T13:41:31;62.80;;;33.67;;
24325;SDS011;12448;45.532;5.290;2022-12-10T13:47:27;61.77;;;31.93;;
24325;SDS011;12448;45.532;5.290;2022-12-10T13:50:40;78.07;;;38.97;;
24325;SDS011;12448;45.532;5.290;2022-12-10T14:03:17;56.53;;;26.23;;
24325;SDS011;12448;45.532;5.290;2022-12-10T14:06:24;55.10;;;27.80;;
24325;SDS011;12448;45.532;5.290;2022-12-10T14:09:01;50.93;;;26.53;;
24325;SDS011;12448;45.532;5.290;2022-12-10T14:11:37;56.47;;;30.47;;
24325;SDS011;12448;45.532;5.290;2022-12-10T14:14:34;52.33;;;25.10;;
24325;SDS011;12448;45.532;5.290;2022-12-10T14:17:09;40.77;;;17.77;;
24325;SDS011;12448;45.532;5.290;2022-12-10T14:23:27;49.00;;;24.87;;
24325;SDS011;12448;45.532;5.290;2022-12-10T14:26:43;58.30;;;29.37;;
24325;SDS011;12448;45.532;5.290;2022-12-10T14:32:57;53.87;;;27.00;;
24325;SDS011;12448;45.532;5.290;2022-12-10T14:51:19;79.70;;;36.50;;
24325;SDS011;12448;45.532;5.290;2022-12-10T14:53:51;59.43;;;28.13;;
24325;SDS011;12448;45.532;5.290;2022-12-10T14:56:29;70.27;;;30.30;;
24325;SDS011;12448;45.532;5.290;2022-12-10T14:59:17;57.47;;;26.40;;
24325;SDS011;12448;45.532;5.290;2022-12-10T15:01:58;55.27;;;25.30;;
24325;SDS011;12448;45.532;5.290;2022-12-10T15:04:28;69.13;;;28.40;;
24325;SDS011;12448;45.532;5.290;2022-12-10T15:07:07;57.07;;;26.83;;
24325;SDS011;12448;45.532;5.290;2022-12-10T15:09:42;110.30;;;48.30;;
24325;SDS011;12448;45.532;5.290;2022-12-10T15:12:19;58.90;;;28.03;;
24325;SDS011;12448;45.532;5.290;2022-12-10T15:14:53;87.77;;;37.77;;
24325;SDS011;12448;45.532;5.290;2022-12-10T15:17:35;53.80;;;25.58;;
24325;SDS011;12448;45.532;5.290;2022-12-10T15:20:26;45.97;;;21.77;;
24325;SDS011;12448;45.532;5.290;2022-12-10T15:22:52;50.23;;;23.60;;
24325;SDS011;12448;45.532;5.290;2022-12-10T15:25:31;119.20;;;43.33;;
24325;SDS011;12448;45.532;5.290;2022-12-10T15:28:23;60.00;;;26.27;;
24325;SDS011;12448;45.532;5.290;2022-12-10T15:30:49;111.17;;;42.30;;
24325;SDS011;12448;45.532;5.290;2022-12-10T15:33:23;103.03;;;41.90;;
24325;SDS011;12448;45.532;5.290;2022-12-10T15:35:55;46.83;;;21.97;;
24325;SDS011;12448;45.532;5.290;2022-12-10T15:38:23;126.70;;;43.53;;
24325;SDS011;12448;45.532;5.290;2022-12-10T15:40:49;62.67;;;28.83;;
24325;SDS011;12448;45.532;5.290;2022-12-10T15:43:25;69.33;;;31.30;;
24325;SDS011;12448;45.532;5.290;2022-12-10T15:45:54;66.80;;;32.30;;
24325;SDS011;12448;45.532;5.290;2022-12-10T15:48:21;66.73;;;32.37;;
24325;SDS011;12448;45.532;5.290;2022-12-10T15:50:49;47.87;;;23.83;;
24325;SDS011;12448;45.532;5.290;2022-12-10T15:53:23;64.87;;;32.20;;
24325;SDS011;12448;45.532;5.290;2022-12-10T15:55:52;54.73;;;25.80;;
24325;SDS011;12448;45.532;5.290;2022-12-10T15:58:18;45.30;;;24.67;;
24325;SDS011;12448;45.532;5.290;2022-12-10T16:00:44;47.73;;;23.17;;
24325;SDS011;12448;45.532;5.290;2022-12-10T16:03:12;56.50;;;26.80;;
24325;SDS011;12448;45.532;5.290;2022-12-10T16:05:40;49.73;;;22.67;;
24325;SDS011;12448;45.532;5.290;2022-12-10T16:08:12;50.87;;;22.77;;
24325;SDS011;12448;45.532;5.290;2022-12-10T16:10:39;50.40;;;23.90;;
24325;SDS011;12448;45.532;5.290;2022-12-10T16:13:13;48.43;;;24.33;;
24325;SDS011;12448;45.532;5.290;2022-12-10T16:18:16;54.70;;;24.95;;
24325;SDS011;12448;45.532;5.290;2022-12-10T16:20:42;56.13;;;27.03;;
24325;SDS011;12448;45.532;5.290;2022-12-10T16:23:10;46.57;;;22.23;;
24325;SDS011;12448;45.532;5.290;2022-12-10T16:25:39;54.23;;;27.90;;
24325;SDS011;12448;45.532;5.290;2022-12-10T16:28:10;53.73;;;26.33;;
24325;SDS011;12448;45.532;5.290;2022-12-10T16:30:44;49.07;;;22.83;;
24325;SDS011;12448;45.532;5.290;2022-12-10T16:33:14;53.30;;;25.73;;
24325;SDS011;12448;45.532;5.290;2022-12-10T16:38:27;43.07;;;21.73;;
24325;SDS011;12448;45.532;5.290;2022-12-10T16:40:53;68.40;;;32.00;;
24325;SDS011;12448;45.532;5.290;2022-12-10T16:43:25;57.70;;;27.60;;
24325;SDS011;12448;45.532;5.290;2022-12-10T16:45:53;54.93;;;27.67;;
24325;SDS011;12448;45.532;5.290;2022-12-10T16:48:19;50.43;;;25.60;;
24325;SDS011;12448;45.532;5.290;2022-12-10T16:50:54;48.67;;;26.20;;
24325;SDS011;12448;45.532;5.290;2022-12-10T16:53:24;42.73;;;21.53;;
24325;SDS011;12448;45.532;5.290;2022-12-10T16:55:52;55.90;;;26.40;;
24325;SDS011;12448;45.532;5.290;2022-12-10T16:58:19;61.07;;;26.80;;